createdAt,value
2018-10-03T01:05:44.910Z,57.9
2018-10-03T01:05:55.169Z,57.9
2018-10-03T01:06:45.231Z,57.9
2018-10-03T01:07:35.533Z,57.9
2018-10-03T01:08:24.866Z,57.9
2018-10-03T01:09:15.192Z,57.9
2018-10-03T01:10:04.976Z,57.9
2018-10-03T01:10:56.058Z,57.9
2018-10-03T01:11:45.368Z,57.9
2018-10-03T01:12:35.710Z,57.9
2018-10-03T01:13:25.533Z,57.9
2018-10-03T01:14:15.573Z,57.9
2018-10-03T01:15:05.920Z,57.9
2018-10-03T01:15:55.935Z,57.8
2018-10-03T01:16:46.031Z,57.9
2018-10-03T01:17:35.868Z,57.9
2018-10-03T01:18:25.593Z,57.8
2018-10-03T01:19:15.391Z,57.8
2018-10-03T01:20:05.434Z,57.8
2018-10-03T01:20:55.970Z,57.8
2018-10-03T01:21:46.385Z,57.8
2018-10-03T01:22:36.255Z,57.8
2018-10-03T01:30:06.448Z,57.7
2018-10-03T01:31:46.574Z,57.7
2018-10-03T01:32:36.927Z,57.7
2018-10-03T01:33:26.395Z,57.7
2018-10-03T01:34:16.459Z,57.7
2018-10-03T01:35:07.121Z,57.6
2018-10-03T01:35:57.179Z,57.6
2018-10-03T01:36:47.227Z,57.6
2018-10-03T01:37:37.319Z,57.6
2018-10-03T01:38:27.276Z,57.6
2018-10-03T01:39:17.140Z,57.6
2018-10-03T01:40:07.499Z,57.6
2018-10-03T01:40:57.519Z,57.6
2018-10-03T01:41:47.616Z,57.6
2018-10-03T01:42:37.902Z,57.6
2018-10-03T01:43:28.034Z,57.6
2018-10-03T01:44:18.071Z,57.6
2018-10-03T01:45:07.871Z,57.6
2018-10-03T01:45:57.620Z,57.6
2018-10-03T01:46:48.561Z,57.6
2018-10-03T01:47:38.068Z,57.6
2018-10-03T01:48:28.353Z,57.6
2018-10-03T01:49:18.165Z,57.5
2018-10-03T01:50:08.484Z,57.5
2018-10-03T01:50:58.555Z,57.5
2018-10-03T01:51:48.064Z,57.5
2018-10-03T01:52:38.403Z,57.5
2018-10-03T01:53:28.476Z,57.5
2018-10-03T01:54:18.813Z,57.4
2018-10-03T01:55:07.997Z,57.4
2018-10-03T01:55:58.648Z,57.4
2018-10-03T01:56:48.182Z,57.4
2018-10-03T01:57:39.038Z,57.4
2018-10-03T01:58:28.858Z,57.4
2018-10-03T01:59:18.625Z,57.4
2018-10-03T02:00:09.215Z,57.4
2018-10-03T02:00:59.292Z,57.4
2018-10-03T02:01:49.110Z,57.4
2018-10-03T02:02:39.158Z,57.4
2018-10-03T02:03:28.955Z,57.4
2018-10-03T02:04:19.567Z,57.4
2018-10-03T02:05:09.311Z,57.4
2018-10-03T02:05:59.445Z,57.4
2018-10-03T02:06:49.447Z,57.4
2018-10-03T02:07:39.795Z,57.3
2018-10-03T02:08:29.289Z,57.3
2018-10-03T02:09:19.642Z,57.3
2018-10-03T02:10:09.690Z,57.3
2018-10-03T02:11:00.045Z,57.3
2018-10-03T02:11:50.119Z,57.3
2018-10-03T02:12:39.874Z,57.3
2018-10-03T02:13:30.268Z,57.3
2018-10-03T02:14:20.297Z,57.3
2018-10-03T02:15:09.797Z,57.3
2018-10-03T02:15:59.580Z,57.3
2018-10-03T02:16:49.909Z,57.3
2018-10-03T02:17:40.581Z,57.3
2018-10-03T02:18:29.837Z,57.3
2018-10-03T02:19:20.454Z,57.3
2018-10-03T02:20:09.901Z,57.2
2018-10-03T02:21:00.514Z,57.2
2018-10-03T02:21:50.017Z,57.2
2018-10-03T02:22:41.160Z,57.2
2018-10-03T02:23:31.017Z,57.2
2018-10-03T02:24:21.027Z,57.2
2018-10-03T02:25:10.821Z,57.1
2018-10-03T02:26:01.168Z,57.1
2018-10-03T02:26:50.078Z,57.1
2018-10-03T02:27:40.999Z,57.1
2018-10-03T02:28:31.023Z,57.1
2018-10-03T02:29:21.411Z,57.1
2018-10-03T02:30:10.649Z,57.1
2018-10-03T02:31:01.347Z,57.1
2018-10-03T02:31:51.582Z,57.1
2018-10-03T02:32:41.123Z,57.1
2018-10-03T02:33:31.188Z,57.1
2018-10-03T02:34:21.515Z,57.1
2018-10-03T02:35:11.278Z,57.1
2018-10-03T02:36:01.632Z,57.1
2018-10-03T02:36:51.996Z,57.1
2018-10-03T02:37:41.191Z,57
2018-10-03T02:38:32.088Z,57
2018-10-03T02:39:22.136Z,57
2018-10-03T02:40:11.669Z,57
2018-10-03T02:41:01.703Z,57
2018-10-03T02:41:51.783Z,57
2018-10-03T02:42:42.118Z,57
2018-10-03T02:43:32.166Z,56.9
2018-10-03T02:44:22.243Z,57
2018-10-03T02:45:12.602Z,56.9
2018-10-03T02:46:02.498Z,56.9
2018-10-03T02:46:52.721Z,56.9
2018-10-03T02:47:42.200Z,56.9
2018-10-03T02:48:32.876Z,56.9
2018-10-03T02:49:22.588Z,56.9
2018-10-03T02:50:12.989Z,56.9
2018-10-03T02:51:03.052Z,56.9
2018-10-03T02:51:52.838Z,56.9
2018-10-03T02:52:42.843Z,56.9
2018-10-03T02:53:33.223Z,56.9
2018-10-03T02:54:22.990Z,56.9
2018-10-03T02:55:13.325Z,56.9
2018-10-03T02:56:03.110Z,56.9
2018-10-03T02:56:53.427Z,56.8
2018-10-03T02:57:42.942Z,56.8
2018-10-03T02:58:33.422Z,56.8
2018-10-03T02:59:23.857Z,56.8
2018-10-03T03:00:13.744Z,56.8
2018-10-03T03:01:03.765Z,56.8
2018-10-03T03:01:54.268Z,56.8
2018-10-03T03:02:43.312Z,56.8
2018-10-03T03:03:33.937Z,56.8
2018-10-03T03:04:23.749Z,56.8
2018-10-03T03:05:14.092Z,56.8
2018-10-03T03:06:03.591Z,56.8
2018-10-03T03:06:53.911Z,56.8
2018-10-03T03:07:43.711Z,56.8
2018-10-03T03:08:35.411Z,56.8
2018-10-03T03:09:24.451Z,56.7
2018-10-03T03:10:14.464Z,56.7
2018-10-03T03:11:03.961Z,56.7
2018-10-03T03:11:54.818Z,56.7
2018-10-03T03:12:44.369Z,56.7
2018-10-03T03:13:34.674Z,56.7
2018-10-03T03:14:24.471Z,56.7
2018-10-03T03:15:14.799Z,56.7
2018-10-03T03:16:04.699Z,56.7
2018-10-03T03:16:54.671Z,56.6
2018-10-03T03:17:45.003Z,56.6
2018-10-03T03:18:34.771Z,56.6
2018-10-03T03:19:25.065Z,56.6
2018-10-03T03:20:14.617Z,56.6
2018-10-03T03:21:04.684Z,56.6
2018-10-03T03:21:55.016Z,56.6
2018-10-03T03:22:45.098Z,56.6
2018-10-03T03:23:35.458Z,56.6
2018-10-03T03:24:25.501Z,56.6
2018-10-03T03:25:15.585Z,56.6
2018-10-03T03:26:06.251Z,56.6
2018-10-03T03:26:55.383Z,56.5
2018-10-03T03:27:45.715Z,56.6
2018-10-03T03:28:35.292Z,56.5
2018-10-03T03:29:25.573Z,56.6
2018-10-03T03:30:15.885Z,56.5
2018-10-03T03:31:05.999Z,56.5
2018-10-03T03:31:55.857Z,56.5
2018-10-03T03:32:45.867Z,56.5
2018-10-03T03:33:35.619Z,56.5
2018-10-03T03:34:26.212Z,56.5
2018-10-03T03:35:15.743Z,56.4
2018-10-03T03:36:06.370Z,56.5
2018-10-03T03:36:55.538Z,56.4
2018-10-03T03:37:46.180Z,56.4
2018-10-03T03:38:36.274Z,56.4
2018-10-03T03:39:26.628Z,56.4
2018-10-03T03:40:16.972Z,56.4
2018-10-03T03:41:06.729Z,56.4
2018-10-03T03:41:56.774Z,56.4
2018-10-03T03:42:47.064Z,56.4
2018-10-03T03:43:36.642Z,56.4
2018-10-03T03:44:26.148Z,56.4
2018-10-03T03:45:17.083Z,56.4
2018-10-03T03:46:06.764Z,56.4
2018-10-03T03:46:56.331Z,56.3
2018-10-03T03:47:47.218Z,56.4
2018-10-03T03:48:37.301Z,56.3
2018-10-03T03:49:26.755Z,56.3
2018-10-03T03:50:17.145Z,56.3
2018-10-03T03:51:07.479Z,56.3
2018-10-03T03:51:57.529Z,56.3
2018-10-03T03:52:47.051Z,56.3
2018-10-03T03:53:37.484Z,56.3
2018-10-03T03:54:27.408Z,56.3
2018-10-03T03:55:17.285Z,56.3
2018-10-03T03:56:07.839Z,56.3
2018-10-03T03:56:57.887Z,56.3
2018-10-03T03:57:47.946Z,56.3
2018-10-03T03:58:37.450Z,56.3
2018-10-03T03:59:27.837Z,56.3
2018-10-03T04:00:18.161Z,56.3
2018-10-03T04:01:07.646Z,56.2
2018-10-03T04:01:57.729Z,56.2
2018-10-03T04:02:47.184Z,56.2
2018-10-03T04:03:38.110Z,56.2
2018-10-03T04:04:28.468Z,56.2
2018-10-03T04:05:17.965Z,56.1
2018-10-03T04:06:08.570Z,56.1
2018-10-03T04:06:58.411Z,56.1
2018-10-03T04:07:48.676Z,56.1
2018-10-03T04:08:38.501Z,56.1
2018-10-03T04:09:27.988Z,56.1
2018-10-03T04:10:18.633Z,56.1
2018-10-03T04:11:08.435Z,56.1
2018-10-03T04:11:58.446Z,56.1
2018-10-03T04:12:49.061Z,56.1
2018-10-03T04:13:38.317Z,56.1
2018-10-03T04:14:29.210Z,56.1
2018-10-03T04:15:19.290Z,56.1
2018-10-03T04:16:09.073Z,56.1
2018-10-03T04:16:58.815Z,56.1
2018-10-03T04:17:48.893Z,56
2018-10-03T04:18:39.500Z,56
2018-10-03T04:19:29.563Z,56
2018-10-03T04:20:19.652Z,56
2018-10-03T04:21:09.452Z,56
2018-10-03T04:21:59.652Z,56
2018-10-03T04:22:50.117Z,56
2018-10-03T04:23:39.303Z,56
2018-10-03T04:24:29.675Z,55.9
2018-10-03T04:25:19.777Z,55.9
2018-10-03T04:26:08.929Z,55.9
2018-10-03T04:26:59.837Z,55.9
2018-10-03T04:27:50.197Z,55.9
2018-10-03T04:28:39.964Z,55.9
2018-10-03T04:29:29.730Z,55.9
2018-10-03T04:30:20.074Z,55.9
2018-10-03T04:31:09.888Z,55.9
2018-10-03T04:32:00.491Z,55.9
2018-10-03T04:32:50.302Z,55.9
2018-10-03T04:33:40.337Z,55.9
2018-10-03T04:34:30.678Z,55.9
2018-10-03T04:35:20.739Z,55.9
2018-10-03T04:36:10.797Z,55.8
2018-10-03T04:54:33.673Z,55.6
2018-10-03T04:55:23.771Z,55.6
2018-10-03T04:56:13.269Z,55.6
2018-10-03T04:57:03.654Z,55.6
2018-10-03T04:57:53.101Z,55.6
2018-10-03T04:58:43.729Z,55.6
2018-10-03T04:59:34.656Z,55.6
2018-10-03T05:00:23.899Z,55.6
2018-10-03T05:01:13.626Z,55.6
2018-10-03T05:02:03.393Z,55.6
2018-10-03T05:02:54.286Z,55.6
2018-10-03T05:03:43.812Z,55.6
2018-10-03T05:04:35.041Z,55.5
2018-10-03T05:05:24.209Z,55.5
2018-10-03T05:06:14.566Z,55.5
2018-10-03T05:07:04.868Z,55.5
2018-10-03T05:07:54.948Z,55.5
2018-10-03T05:08:44.756Z,55.5
2018-10-03T05:09:34.199Z,55.5
2018-10-03T05:10:25.126Z,55.4
2018-10-03T05:11:14.812Z,55.4
2018-10-03T05:12:05.255Z,55.4
2018-10-03T05:12:55.076Z,55.4
2018-10-03T05:13:45.378Z,55.4
2018-10-03T05:14:35.178Z,55.4
2018-10-03T05:15:24.413Z,55.4
2018-10-03T05:16:15.276Z,55.4
2018-10-03T05:17:05.365Z,55.4
2018-10-03T05:17:55.693Z,55.4
2018-10-03T05:18:45.482Z,55.4
2018-10-03T05:19:36.315Z,55.4
2018-10-03T05:20:25.315Z,55.3
2018-10-03T05:21:15.656Z,55.4
2018-10-03T05:22:06.060Z,55.3
2018-10-03T05:22:55.901Z,55.3
2018-10-03T05:23:46.210Z,55.3
2018-10-03T05:24:36.501Z,55.3
2018-10-03T05:25:25.453Z,55.3
2018-10-03T05:26:16.010Z,55.3
2018-10-03T05:27:05.850Z,55.3
2018-10-03T05:27:56.352Z,55.3
2018-10-03T05:28:45.691Z,55.3
2018-10-03T05:29:36.549Z,55.3
2018-10-03T05:30:25.797Z,55.3
2018-10-03T05:31:16.399Z,55.3
2018-10-03T05:32:06.482Z,55.2
2018-10-03T05:32:55.967Z,55.3
2018-10-03T05:33:46.322Z,55.2
2018-10-03T05:34:36.648Z,55.2
2018-10-03T05:35:26.426Z,55.2
2018-10-03T05:36:17.035Z,55.2
2018-10-03T05:37:06.857Z,55.2
2018-10-03T05:37:56.898Z,55.1
2018-10-03T05:38:47.000Z,55.1
2018-10-03T05:39:37.902Z,55.2
2018-10-03T05:40:26.805Z,55.1
2018-10-03T05:41:17.416Z,55.1
2018-10-03T05:42:06.677Z,55.1
2018-10-03T05:42:56.972Z,55.1
2018-10-03T05:43:47.335Z,55.1
2018-10-03T05:44:37.128Z,55.1
2018-10-03T05:45:27.748Z,55.1
2018-10-03T05:46:17.556Z,55.1
2018-10-03T05:47:07.897Z,55.1
2018-10-03T05:47:57.349Z,55.1
2018-10-03T05:48:48.577Z,55.1
2018-10-03T05:49:37.250Z,55.1
2018-10-03T05:50:27.615Z,55
2018-10-03T05:51:17.892Z,55
2018-10-03T05:52:08.213Z,55
2018-10-03T05:52:58.282Z,55
2018-10-03T05:53:47.572Z,55
2018-10-03T05:54:38.961Z,55
2018-10-03T05:55:27.942Z,55
2018-10-03T05:56:18.517Z,55
2018-10-03T05:57:08.326Z,54.9
2018-10-03T05:57:58.132Z,54.9
2018-10-03T05:58:48.158Z,54.9
2018-10-03T05:59:38.780Z,54.9
2018-10-03T06:00:28.568Z,54.9
2018-10-03T06:01:18.907Z,54.9
2018-10-03T06:02:08.412Z,54.9
2018-10-03T06:02:58.524Z,54.9
2018-10-03T06:03:49.079Z,54.9
2018-10-03T06:04:38.605Z,54.9
2018-10-03T06:05:28.940Z,54.9
2018-10-03T06:06:18.728Z,54.9
2018-10-03T06:07:08.220Z,54.8
2018-10-03T06:07:58.840Z,54.9
2018-10-03T06:08:49.007Z,54.8
2018-10-03T06:09:39.028Z,54.8
2018-10-03T06:10:29.615Z,54.8
2018-10-03T06:11:18.790Z,54.8
2018-10-03T06:12:10.002Z,54.8
2018-10-03T06:12:59.215Z,54.8
2018-10-03T06:13:49.250Z,54.8
2018-10-03T06:14:39.872Z,54.8
2018-10-03T06:15:29.936Z,54.8
2018-10-03T06:16:19.724Z,54.8
2018-10-03T06:17:09.534Z,54.8
2018-10-03T06:18:00.151Z,54.8
2018-10-03T06:18:50.775Z,54.8
2018-10-03T06:19:39.454Z,54.7
2018-10-03T06:20:28.536Z,54.8
2018-10-03T06:21:19.364Z,54.7
2018-10-03T06:22:09.419Z,54.7
2018-10-03T06:22:59.981Z,54.7
2018-10-03T06:23:49.156Z,54.7
2018-10-03T06:24:39.261Z,54.7
2018-10-03T06:25:29.483Z,54.7
2018-10-03T06:26:19.454Z,54.6
2018-10-03T06:27:10.346Z,54.6
2018-10-03T06:28:01.063Z,54.6
2018-10-03T06:28:50.409Z,54.6
2018-10-03T06:29:39.924Z,54.6
2018-10-03T06:30:30.328Z,54.6
2018-10-03T06:31:20.583Z,54.6
2018-10-03T06:32:10.538Z,54.6
2018-10-03T06:33:00.814Z,54.6
2018-10-03T06:33:50.759Z,54.6
2018-10-03T06:34:40.824Z,54.6
2018-10-03T06:35:30.565Z,54.6
2018-10-03T06:36:21.213Z,54.6
2018-10-03T06:37:11.270Z,54.6
2018-10-03T06:38:01.359Z,54.6
2018-10-03T06:38:51.148Z,54.6
2018-10-03T06:39:40.906Z,54.6
2018-10-03T06:40:32.662Z,54.5
2018-10-03T06:41:22.306Z,54.5
2018-10-03T06:42:12.218Z,54.4
2018-10-03T06:43:01.696Z,54.5
2018-10-03T06:43:51.485Z,54.5
2018-10-03T06:44:41.550Z,54.4
2018-10-03T06:45:32.110Z,54.4
2018-10-03T06:46:21.374Z,54.4
2018-10-03T06:47:12.041Z,54.4
2018-10-03T06:48:01.813Z,54.4
2018-10-03T06:48:52.406Z,54.4
2018-10-03T06:49:41.938Z,54.4
2018-10-03T06:50:32.256Z,54.4
2018-10-03T06:51:22.406Z,54.4
2018-10-03T06:52:12.678Z,54.4
2018-10-03T06:53:02.161Z,54.4
2018-10-03T06:53:52.796Z,54.4
2018-10-03T06:54:42.279Z,54.4
2018-10-03T06:55:33.055Z,54.4
2018-10-03T06:56:22.966Z,54.4
2018-10-03T06:57:12.894Z,54.3
2018-10-03T06:58:02.528Z,54.3
2018-10-03T06:58:53.155Z,54.3
2018-10-03T06:59:43.235Z,54.3
2018-10-03T07:00:33.004Z,54.3
2018-10-03T07:01:23.120Z,54.3
2018-10-03T07:02:13.893Z,54.3
2018-10-03T07:03:02.923Z,54.3
2018-10-03T07:03:52.967Z,54.3
2018-10-03T07:04:43.030Z,54.3
2018-10-03T07:05:33.083Z,54.3
2018-10-03T07:06:23.149Z,54.3
2018-10-03T07:07:13.783Z,54.3
2018-10-03T07:08:03.289Z,54.3
2018-10-03T07:08:53.885Z,54.3
2018-10-03T07:09:43.400Z,54.3
2018-10-03T07:10:33.482Z,54.2
2018-10-03T07:11:23.780Z,54.2
2018-10-03T07:12:13.332Z,54.2
2018-10-03T07:13:04.784Z,54.2
2018-10-03T07:13:54.027Z,54.1
2018-10-03T07:14:43.774Z,54.1
2018-10-03T07:15:34.157Z,54.1
2018-10-03T07:16:23.874Z,54.1
2018-10-03T07:17:14.514Z,54.1
2018-10-03T07:18:04.296Z,54.1
2018-10-03T07:18:54.994Z,54.1
2018-10-03T07:19:44.687Z,54.1
2018-10-03T07:20:34.459Z,54.1
2018-10-03T07:21:24.644Z,54.1
2018-10-03T07:22:14.582Z,54.1
2018-10-03T07:23:04.909Z,54.1
2018-10-03T07:23:55.013Z,54.1
2018-10-03T07:24:45.027Z,54.1
2018-10-03T07:25:34.604Z,54.1
2018-10-03T07:26:24.751Z,54.1
2018-10-03T07:27:15.001Z,54
2018-10-03T07:28:05.324Z,54
2018-10-03T07:28:54.906Z,54
2018-10-03T07:29:44.603Z,54
2018-10-03T07:30:34.951Z,54
2018-10-03T07:31:25.001Z,54
2018-10-03T07:32:15.338Z,54
2018-10-03T07:33:04.636Z,53.9
2018-10-03T07:33:55.460Z,54
2018-10-03T07:34:45.258Z,53.9
2018-10-03T07:35:35.031Z,53.9
2018-10-03T07:36:25.679Z,53.9
2018-10-03T07:37:15.176Z,53.9
2018-10-03T07:38:06.018Z,53.9
2018-10-03T07:38:56.179Z,53.9
2018-10-03T07:39:46.187Z,53.9
2018-10-03T07:40:35.990Z,53.9
2018-10-03T07:41:26.090Z,53.9
2018-10-03T07:42:16.114Z,53.9
2018-10-03T07:43:06.165Z,53.9
2018-10-03T07:43:56.879Z,53.9
2018-10-03T07:44:46.305Z,53.9
2018-10-03T07:45:35.768Z,53.9
2018-10-03T07:46:26.125Z,53.9
2018-10-03T07:47:16.184Z,53.8
2018-10-03T07:48:07.070Z,53.8
2018-10-03T07:48:56.303Z,53.8
2018-10-03T07:49:46.921Z,53.8
2018-10-03T07:50:37.014Z,53.8
2018-10-03T07:51:26.211Z,53.8
2018-10-03T07:52:16.564Z,53.8
2018-10-03T07:53:06.616Z,53.8
2018-10-03T07:53:57.286Z,53.8
2018-10-03T07:54:47.563Z,53.8
2018-10-03T07:55:37.082Z,53.8
2018-10-03T07:56:28.016Z,53.8
2018-10-03T07:57:17.057Z,53.8
2018-10-03T07:58:06.794Z,53.7
2018-10-03T07:58:57.701Z,53.7
2018-10-03T07:59:47.454Z,53.7
2018-10-03T08:00:36.628Z,53.7
2018-10-03T08:01:27.545Z,53.7
2018-10-03T08:02:17.294Z,53.7
2018-10-03T08:03:07.642Z,53.7
2018-10-03T08:03:57.740Z,53.7
2018-10-03T08:04:47.763Z,53.7
2018-10-03T08:05:38.140Z,53.6
2018-10-03T08:06:27.605Z,53.6
2018-10-03T08:07:17.986Z,53.6
2018-10-03T08:08:08.299Z,53.6
2018-10-03T08:08:57.813Z,53.6
2018-10-03T08:09:47.479Z,53.6
2018-10-03T08:10:38.208Z,53.6
2018-10-03T08:11:27.990Z,53.6
2018-10-03T08:12:18.137Z,53.6
2018-10-03T08:13:08.744Z,53.6
2018-10-03T08:13:58.523Z,53.6
2018-10-03T08:14:47.891Z,53.6
2018-10-03T08:15:38.981Z,53.6
2018-10-03T08:16:28.640Z,53.6
2018-10-03T08:17:19.324Z,53.6
2018-10-03T08:18:09.072Z,53.6
2018-10-03T08:18:59.112Z,53.6
2018-10-03T08:19:48.862Z,53.5
2018-10-03T08:20:38.952Z,53.5
2018-10-03T08:21:29.303Z,53.5
2018-10-03T08:22:19.364Z,53.5
2018-10-03T08:23:09.657Z,53.5
2018-10-03T08:23:59.200Z,53.5
2018-10-03T08:24:49.310Z,53.4
2018-10-03T08:25:39.907Z,53.4
2018-10-03T08:26:29.396Z,53.4
2018-10-03T08:27:19.473Z,53.4
2018-10-03T08:28:09.779Z,53.4
2018-10-03T08:28:59.836Z,53.4
2018-10-03T08:29:49.904Z,53.4
2018-10-03T08:30:39.726Z,53.4
2018-10-03T08:31:30.061Z,53.4
2018-10-03T08:32:20.762Z,53.4
2018-10-03T08:33:10.394Z,53.4
2018-10-03T08:34:00.217Z,53.4
2018-10-03T08:34:50.291Z,53.4
2018-10-03T08:35:40.399Z,53.4
2018-10-03T08:36:30.126Z,53.4
2018-10-03T08:37:19.981Z,53.4
2018-10-03T08:38:10.277Z,53.3
2018-10-03T08:39:00.563Z,53.3
2018-10-03T08:39:50.409Z,53.3
2018-10-03T08:40:40.708Z,53.4
2018-10-03T08:41:30.894Z,53.3
2018-10-03T08:42:20.904Z,53.3
2018-10-03T08:43:10.667Z,53.3
2018-10-03T08:44:00.992Z,53.3
2018-10-03T08:44:51.028Z,53.3
2018-10-03T08:45:42.213Z,53.3
2018-10-03T08:46:30.886Z,53.3
2018-10-03T08:47:21.264Z,53.3
2018-10-03T08:48:10.195Z,53.3
2018-10-03T08:49:00.235Z,53.2
2018-10-03T08:49:51.158Z,53.2
2018-10-03T08:50:40.928Z,53.1
2018-10-03T08:51:30.686Z,53.1
2018-10-03T08:52:21.071Z,53.1
2018-10-03T09:08:46.714Z,53.9
2018-10-03T09:09:36.692Z,54
2018-10-03T09:10:26.132Z,54.1
2018-10-03T09:11:16.831Z,54.1
2018-10-03T09:12:06.593Z,54.3
2018-10-03T09:12:56.935Z,54.3
2018-10-03T09:13:47.014Z,54.3
2018-10-03T09:14:37.064Z,54.4
2018-10-03T09:15:27.116Z,54.4
2018-10-03T09:16:17.181Z,54.6
2018-10-03T09:17:06.940Z,54.6
2018-10-03T09:17:56.730Z,54.7
2018-10-03T09:18:47.404Z,54.8
2018-10-03T09:19:37.423Z,54.8
2018-10-03T09:20:27.179Z,54.9
2018-10-03T09:21:17.364Z,54.9
2018-10-03T09:22:07.864Z,55.1
2018-10-03T09:22:57.376Z,55.1
2018-10-03T09:23:47.757Z,55.2
2018-10-03T09:24:37.211Z,55.3
2018-10-03T09:25:27.288Z,55.3
2018-10-03T09:26:17.926Z,55.4
2018-10-03T09:27:08.028Z,55.4
2018-10-03T09:27:57.805Z,55.5
2018-10-03T09:28:48.109Z,55.6
2018-10-03T09:29:38.173Z,55.7
2018-10-03T09:30:27.628Z,55.8
2018-10-03T09:31:18.300Z,55.8
2018-10-03T09:32:08.341Z,55.9
2018-10-03T09:32:58.404Z,55.9
2018-10-03T09:33:48.181Z,56
2018-10-03T09:34:38.264Z,56.1
2018-10-03T09:35:28.876Z,56.1
2018-10-03T09:36:17.515Z,56.2
2018-10-03T09:37:08.446Z,56.3
2018-10-03T09:37:58.797Z,56.3
2018-10-03T09:38:48.873Z,56.4
2018-10-03T09:39:38.777Z,56.5
2018-10-03T09:40:29.085Z,56.6
2018-10-03T09:41:18.753Z,56.6
2018-10-03T09:42:09.088Z,56.6
2018-10-03T09:42:58.918Z,56.8
2018-10-03T09:43:49.053Z,56.8
2018-10-03T09:44:40.355Z,56.9
2018-10-03T09:45:29.325Z,56.9
2018-10-03T09:46:19.135Z,57
2018-10-03T09:47:09.473Z,57
2018-10-03T09:47:59.534Z,57.1
2018-10-03T09:48:49.586Z,57.1
2018-10-03T09:49:39.090Z,57.2
2018-10-03T09:50:29.149Z,57.3
2018-10-03T09:51:19.857Z,57.3
2018-10-03T09:52:08.692Z,57.4
2018-10-03T09:52:59.948Z,57.4
2018-10-03T09:53:49.966Z,57.4
2018-10-03T09:54:39.741Z,57.5
2018-10-03T09:55:30.088Z,57.6
2018-10-03T09:56:20.450Z,57.6
2018-10-03T09:57:10.196Z,57.6
2018-10-03T09:57:59.991Z,57.7
2018-10-03T10:00:30.558Z,57.8
2018-10-03T10:01:20.044Z,57.9
2018-10-03T10:02:10.591Z,57.9
2018-10-03T10:03:00.079Z,57.9
2018-10-03T10:03:50.704Z,58
2018-10-03T10:04:40.490Z,58.1
2018-10-03T10:05:30.551Z,58.1
2018-10-03T10:06:20.598Z,58.1
2018-10-03T10:07:10.716Z,58.1
2018-10-03T10:08:00.769Z,58.1
2018-10-03T10:08:51.146Z,58.2
2018-10-03T10:09:41.165Z,58.2
2018-10-03T10:10:30.686Z,58.3
2018-10-03T10:11:22.042Z,58.3
2018-10-03T10:12:11.325Z,58.3
2018-10-03T10:13:01.398Z,58.3
2018-10-03T10:13:51.473Z,58.3
2018-10-03T10:14:41.541Z,58.4
2018-10-03T10:15:30.824Z,58.4
2018-10-03T10:16:21.367Z,58.4
2018-10-03T10:17:11.166Z,58.5
2018-10-03T10:18:01.493Z,58.5
2018-10-03T10:20:31.681Z,58.6
2018-10-03T10:21:22.018Z,58.6
2018-10-03T10:22:11.795Z,58.7
2018-10-03T10:23:02.155Z,58.7
2018-10-03T10:23:52.190Z,58.8
2018-10-03T10:24:41.431Z,58.8
2018-10-03T10:25:32.307Z,58.8
2018-10-03T10:26:21.544Z,58.9
2018-10-03T10:27:12.170Z,58.9
2018-10-03T10:28:02.503Z,58.9
2018-10-03T10:28:51.778Z,59
2018-10-03T10:29:42.634Z,59.1
2018-10-03T10:30:32.401Z,59.1
2018-10-03T10:31:22.488Z,59.2
2018-10-03T10:32:13.840Z,59.3
2018-10-03T10:33:04.427Z,59.3
2018-10-03T10:33:52.934Z,59.4
2018-10-03T10:34:43.254Z,59.4
2018-10-03T10:35:32.781Z,59.5
2018-10-03T10:36:23.146Z,59.6
2018-10-03T10:37:13.699Z,59.6
2018-10-03T10:38:03.009Z,59.6
2018-10-03T10:38:53.323Z,59.8
2018-10-03T10:39:43.098Z,59.8
2018-10-03T10:40:35.697Z,59.9
2018-10-03T10:41:25.534Z,59.9
2018-10-03T10:42:13.251Z,60
2018-10-03T10:43:03.345Z,60.1
2018-10-03T10:43:53.698Z,60.1
2018-10-03T10:44:43.459Z,60.1
2018-10-03T10:45:33.860Z,60.3
2018-10-03T10:46:23.900Z,60.3
2018-10-03T10:47:13.946Z,60.4
2018-10-03T10:48:04.245Z,60.4
2018-10-03T10:48:54.073Z,60.4
2018-10-03T10:49:44.182Z,60.5
2018-10-03T10:50:34.520Z,60.6
2018-10-03T10:51:24.251Z,60.6
2018-10-03T10:52:14.036Z,60.7
2018-10-03T10:53:04.376Z,60.8
2018-10-03T10:53:53.903Z,60.8
2018-10-03T10:54:43.645Z,60.9
2018-10-03T10:55:34.558Z,60.9
2018-10-03T10:56:24.295Z,61
2018-10-03T10:57:13.825Z,61.1
2018-10-03T10:58:04.455Z,61.1
2018-10-03T10:58:54.800Z,61.2
2018-10-03T10:59:44.813Z,61.3
2018-10-03T11:00:34.643Z,61.3
2018-10-03T11:01:24.700Z,61.4
2018-10-03T11:02:15.068Z,61.4
2018-10-03T11:03:05.120Z,61.5
2018-10-03T11:03:55.192Z,61.5
2018-10-03T11:04:45.247Z,61.6
2018-10-03T11:05:35.302Z,61.6
2018-10-03T11:06:26.309Z,61.7
2018-10-03T11:07:15.135Z,61.8
2018-10-03T11:08:05.211Z,61.8
2018-10-03T11:08:55.555Z,61.8
2018-10-03T11:09:45.344Z,61.9
2018-10-03T11:10:35.667Z,61.9
2018-10-03T11:11:25.742Z,62
2018-10-03T11:12:15.799Z,62
2018-10-03T11:13:06.179Z,62.1
2018-10-03T11:13:55.634Z,62.1
2018-10-03T11:14:45.999Z,62.2
2018-10-03T11:15:36.702Z,62.3
2018-10-03T11:16:26.130Z,62.3
2018-10-03T11:17:16.174Z,62.3
2018-10-03T11:18:05.675Z,62.4
2018-10-03T11:18:56.031Z,62.4
2018-10-03T11:19:46.091Z,62.5
2018-10-03T11:20:36.429Z,62.6
2018-10-03T11:21:26.211Z,62.6
2018-10-03T11:22:16.024Z,62.6
2018-10-03T11:23:06.636Z,62.7
2018-10-03T11:23:59.404Z,62.8
2018-10-03T11:24:48.060Z,62.8
2018-10-03T11:25:36.804Z,62.8
2018-10-03T11:26:26.860Z,62.9
2018-10-03T11:27:16.656Z,62.9
2018-10-03T11:28:07.003Z,63.1
2018-10-03T11:28:56.914Z,63.1
2018-10-03T11:29:47.116Z,63.1
2018-10-03T11:30:37.164Z,63.2
2018-10-03T11:31:26.949Z,63.2
2018-10-03T11:32:17.801Z,63.3
2018-10-03T11:33:07.391Z,63.3
2018-10-03T11:33:57.424Z,63.4
2018-10-03T11:34:46.918Z,63.4
2018-10-03T11:35:37.563Z,63.5
2018-10-03T11:36:27.618Z,63.6
2018-10-03T11:37:17.353Z,63.6
2018-10-03T11:38:07.706Z,63.6
2018-10-03T11:38:57.788Z,63.7
2018-10-03T11:39:47.575Z,63.8
2018-10-03T11:40:37.640Z,63.8
2018-10-03T11:41:27.700Z,63.9
2018-10-03T11:42:18.308Z,63.9
2018-10-03T11:43:08.102Z,63.9
2018-10-03T11:43:58.745Z,64
2018-10-03T11:44:48.247Z,64.1
2018-10-03T11:45:37.753Z,64.1
2018-10-03T11:46:27.800Z,64.1
2018-10-03T11:47:18.153Z,64.2
2018-10-03T11:48:08.505Z,64.3
2018-10-03T11:48:58.555Z,64.3
2018-10-03T11:49:48.333Z,64.3
2018-10-03T11:50:38.758Z,64.3
2018-10-03T11:51:28.451Z,64.4
2018-10-03T11:52:18.495Z,64.4
2018-10-03T11:53:08.855Z,64.4
2018-10-03T11:53:58.367Z,64.5
2018-10-03T11:54:48.977Z,64.6
2018-10-03T11:55:39.036Z,64.6
2018-10-03T11:56:29.104Z,64.6
2018-10-03T11:57:18.019Z,64.7
2018-10-03T11:58:09.229Z,64.7
2018-10-03T11:58:59.289Z,64.8
2018-10-03T11:59:49.070Z,64.8
2018-10-03T12:00:39.154Z,64.8
2018-10-03T12:01:29.179Z,64.8
2018-10-03T12:02:19.532Z,64.8
2018-10-03T12:03:10.264Z,64.9
2018-10-03T12:03:59.674Z,64.9
2018-10-03T12:04:49.444Z,64.9
2018-10-03T12:05:39.506Z,64.9
2018-10-03T12:06:30.248Z,64.9
2018-10-03T12:07:19.942Z,65
2018-10-03T12:08:09.705Z,65
2018-10-03T12:08:59.188Z,65.1
2018-10-03T12:09:49.528Z,65.1
2018-10-03T12:10:40.153Z,65.1
2018-10-03T12:11:30.213Z,65.1
2018-10-03T12:12:20.298Z,65.1
2018-10-03T12:13:10.071Z,65.1
2018-10-03T12:14:00.661Z,65.2
2018-10-03T12:14:50.500Z,65.2
2018-10-03T12:15:40.330Z,65.3
2018-10-03T12:16:30.601Z,65.3
2018-10-03T12:17:20.648Z,65.3
2018-10-03T12:18:10.435Z,65.4
2018-10-03T12:19:01.033Z,65.4
2018-10-03T12:19:51.412Z,65.4
2018-10-03T12:20:40.662Z,65.4
2018-10-03T12:21:30.925Z,65.4
2018-10-03T12:22:20.775Z,65.4
2018-10-03T12:23:10.799Z,65.5
2018-10-03T12:24:00.827Z,65.5
2018-10-03T12:24:51.260Z,65.5
2018-10-03T12:25:41.006Z,65.5
2018-10-03T12:26:31.405Z,65.6
2018-10-03T12:27:21.387Z,65.6
2018-10-03T12:28:11.224Z,65.6
2018-10-03T12:29:01.770Z,65.6
2018-10-03T12:29:51.603Z,65.6
2018-10-03T12:30:41.656Z,65.6
2018-10-03T12:31:31.734Z,65.6
2018-10-03T12:32:21.502Z,65.6
2018-10-03T12:33:11.659Z,65.7
2018-10-03T12:34:01.602Z,65.7
2018-10-03T12:34:52.169Z,65.7
2018-10-03T12:35:42.027Z,65.7
2018-10-03T12:36:31.607Z,65.7
2018-10-03T12:37:22.151Z,65.7
2018-10-03T12:38:11.929Z,65.7
2018-10-03T12:39:02.531Z,65.7
2018-10-03T12:39:52.049Z,65.7
2018-10-03T12:40:42.413Z,65.7
2018-10-03T12:41:32.186Z,65.7
2018-10-03T12:42:22.256Z,65.7
2018-10-03T12:43:12.574Z,65.7
2018-10-03T12:44:02.144Z,65.7
2018-10-03T12:44:52.454Z,65.6
2018-10-03T12:45:43.077Z,65.6
2018-10-03T12:46:32.545Z,65.6
2018-10-03T12:47:22.321Z,65.6
2018-10-03T12:48:12.985Z,65.6
2018-10-03T12:49:02.469Z,65.6
2018-10-03T12:49:52.253Z,65.6
2018-10-03T12:50:42.601Z,65.6
2018-10-03T12:51:33.218Z,65.6
2018-10-03T12:52:22.703Z,65.6
2018-10-03T12:53:12.765Z,65.6
2018-10-03T12:54:03.418Z,65.6
2018-10-03T12:54:54.103Z,65.6
2018-10-03T12:55:42.970Z,65.6
2018-10-03T12:56:33.033Z,65.6
2018-10-03T12:57:23.911Z,65.6